»·PEaware :: N296TM KLGB-KBFL

N296TM :: KLGB-KBFL

FLIGHT INFORMATION

Flight Status: Arrived
Operator: Privately registered:
United States
More flights under this callsign
Pilot: Hunter C. (20264)
Aircraft: SOCATA TBM-900
(TBM9)
More flights by this aircraft type
Origin: KLGB Long Beach
United States
Destination: KBFL Meadows
United States
More flights between these airports :: More routes between these airports
Route: +SLI V459 LHS FASTO2
File this flight plan on PilotEdge
Remarks:
Altitude:
(Current/Filed)
10,000ft
Speed:
(Current/Filed)
220kts
Departed: 22-May-20 04:55 PM
Arrived: 22-May-20 05:37 PM
Distance/Time
Traveled:
106nm/0:41
Distance/Time
To Go:
Arrived

Flight Plot

Page will automatically refresh every two minutes.


Map Options




Map Legend


Flown Route
Filed Route
Departure Airport
Arrival Airport
Navaid (VOR, NDB)
Fix

Horizontal Profiles

Position Reports

Time Latitude Longitude Heading Altitude Ground
Speed
22-May-20 16:32 33.812338 -118.154394 90 43ft 0kts
22-May-20 16:33 33.812338 -118.154394 90 43ft 0kts
22-May-20 16:34 33.812338 -118.154394 90 43ft 0kts
22-May-20 16:35 33.812338 -118.154394 90 43ft 0kts
22-May-20 16:36 33.812338 -118.154394 90 43ft 0kts
22-May-20 16:37 33.812338 -118.154394 90 43ft 0kts
22-May-20 16:38 33.812338 -118.154394 90 43ft 0kts
22-May-20 16:39 33.812338 -118.154394 90 43ft 0kts
22-May-20 16:40 33.812338 -118.154394 90 43ft 0kts
22-May-20 16:41 33.812338 -118.154394 90 43ft 0kts
22-May-20 16:42 33.812338 -118.154394 90 43ft 0kts
22-May-20 16:43 33.812338 -118.154394 90 43ft 0kts
22-May-20 16:44 33.812338 -118.154394 90 43ft 0kts
22-May-20 16:45 33.812338 -118.154394 90 43ft 0kts
22-May-20 16:46 33.812338 -118.154394 90 43ft 0kts
22-May-20 16:47 33.812402 -118.154258 25 42ft 5kts
22-May-20 16:48 33.813114 -118.151889 89 39ft 11kts
22-May-20 16:49 33.813406 -118.148614 5 36ft 0kts
22-May-20 16:50 33.813406 -118.148614 5 36ft 0kts
22-May-20 16:51 33.813406 -118.148614 5 36ft 0kts
22-May-20 16:52 33.813406 -118.148614 5 36ft 0kts
22-May-20 16:53 33.813919 -118.148994 270 36ft 11kts
22-May-20 16:54 33.815883 -118.188306 270 1315ft 135kts
22-May-20 16:55 33.819506 -118.238166 269 3048ft 169kts
22-May-20 16:56 33.813596 -118.295982 216 3005ft 190kts
22-May-20 16:57 33.759320 -118.309692 192 4955ft 185kts
22-May-20 16:58 33.719885 -118.293348 81 7419ft 165kts
22-May-20 16:59 33.742029 -118.251797 59 9827ft 145kts
22-May-20 17:00 33.758307 -118.189495 77 10026ft 224kts
22-May-20 17:01 33.772516 -118.113767 78 10010ft 233kts
22-May-20 17:02 33.807338 -118.063054 332 10003ft 212kts
22-May-20 17:03 33.859292 -118.097910 328 9995ft 212kts
22-May-20 17:04 33.913387 -118.129469 329 9996ft 212kts
22-May-20 17:05 33.967036 -118.160401 329 9996ft 211kts
22-May-20 17:06 34.019631 -118.190736 329 9995ft 212kts
22-May-20 17:07 34.074491 -118.222419 329 9991ft 213kts
22-May-20 17:08 34.129147 -118.254026 329 10026ft 213kts
22-May-20 17:09 34.183349 -118.285419 329 10025ft 214kts
22-May-20 17:10 34.237500 -118.316827 329 10025ft 214kts
22-May-20 17:11 34.292360 -118.348699 329 10034ft 215kts
22-May-20 17:12 34.347095 -118.380588 331 10046ft 209kts
22-May-20 17:13 34.399713 -118.411174 330 10059ft 206kts
22-May-20 17:14 34.452219 -118.441806 330 10055ft 206kts
22-May-20 17:15 34.504948 -118.472613 330 10051ft 206kts
22-May-20 17:16 34.557867 -118.503577 330 10051ft 206kts
22-May-20 17:17 34.610685 -118.534509 330 10045ft 207kts
22-May-20 17:18 34.663785 -118.565658 329 10033ft 208kts
22-May-20 17:19 34.711094 -118.605500 315 10031ft 204kts
22-May-20 17:20 34.755001 -118.650227 315 10049ft 203kts
22-May-20 17:21 34.798702 -118.694773 315 10074ft 203kts
22-May-20 17:23 34.842641 -118.739593 315 10087ft 202kts
22-May-20 17:24 34.885956 -118.783906 315 10155ft 200kts
22-May-20 17:25 34.929327 -118.828282 316 10142ft 196kts
22-May-20 17:26 34.977390 -118.861499 355 9609ft 221kts
22-May-20 17:27 35.041062 -118.861383 354 8617ft 226kts
22-May-20 17:28 35.105456 -118.861419 355 7591ft 225kts
22-May-20 17:29 35.168207 -118.861429 355 7037ft 210kts
22-May-20 17:30 35.226232 -118.861448 356 6812ft 208kts
22-May-20 17:31 35.283447 -118.875257 316 5812ft 216kts
22-May-20 17:32 35.327779 -118.928752 314 4731ft 223kts
22-May-20 17:33 35.369658 -118.979536 315 3053ft 173kts
22-May-20 17:34 35.396548 -119.011007 316 1441ft 108kts
22-May-20 17:35 35.417348 -119.036590 316 900ft 98kts
22-May-20 17:36 35.434515 -119.057055 314 486ft 52kts
22-May-20 17:37 35.436709 -119.057678 46 493ft 0kts
22-May-20 17:38 35.434416 -119.054629 134 492ft 20kts
22-May-20 17:39 35.431363 -119.050222 46 494ft 5kts
22-May-20 17:39 35.431504 -119.049672 130 495ft 0kts

Navigation Log

Ident Type
Flight plan parsing failed, navigation log unavailable